createdAt,value
2022-12-23T00:01:20.412Z,99151.59
2022-12-23T00:02:53.689Z,99152.44
2022-12-23T00:04:26.933Z,99164.59
2022-12-23T00:06:01.850Z,99158.53
2022-12-23T00:07:34.989Z,99152.44
2022-12-23T00:09:08.138Z,99151.56
2022-12-23T00:10:42.112Z,99149.81
2022-12-23T00:12:32.635Z,99155.88
2022-12-23T00:14:23.445Z,99143.78
2022-12-23T00:16:03.623Z,99149.84
2022-12-23T00:17:39.169Z,99142.88
2022-12-23T00:19:12.427Z,99142.91
2022-12-23T00:20:44.516Z,99146.34
2022-12-23T00:22:19.113Z,99137.72
2022-12-23T00:23:53.128Z,99148.09
2022-12-23T00:25:40.393Z,99146.38
2022-12-23T00:27:13.969Z,99150.72
2022-12-23T00:28:47.053Z,99141.22
2022-12-23T00:30:20.223Z,99148.13
2022-12-23T00:31:53.406Z,99149.88
2022-12-23T00:33:28.250Z,99153.34
2022-12-23T00:35:01.465Z,99151.59
2022-12-23T00:36:34.693Z,99152.47
2022-12-23T00:38:08.289Z,99148.13
2022-12-23T00:40:04.408Z,99158.50
2022-12-23T00:41:57.532Z,99153.31
2022-12-23T00:43:30.633Z,99145.50
2022-12-23T00:45:15.726Z,99150.72
2022-12-23T00:46:49.129Z,99144.69
2022-12-23T00:48:39.587Z,99137.72
2022-12-23T00:50:11.893Z,99144.69
2022-12-23T00:51:45.031Z,99143.78
2022-12-23T00:53:19.541Z,99137.72
2022-12-23T00:54:52.644Z,99137.72
2022-12-23T00:56:25.818Z,99139.47
2022-12-23T00:57:59.928Z,99139.47
2022-12-23T00:59:33.075Z,99130.78
2022-12-23T01:01:23.593Z,99129.06
2022-12-23T01:03:28.762Z,99129.06
2022-12-23T01:05:19.379Z,99124.75
2022-12-23T01:06:52.520Z,99118.66
2022-12-23T01:08:27.622Z,99106.50
2022-12-23T01:10:00.898Z,99116.06
2022-12-23T01:11:34.229Z,99127.31
2022-12-23T01:13:07.001Z,99115.16
2022-12-23T01:14:40.682Z,99108.22
2022-12-23T01:16:17.622Z,99116.00
2022-12-23T01:17:50.114Z,99116.00
2022-12-23T01:19:23.267Z,99110.81
2022-12-23T01:20:56.589Z,99115.16
2022-12-23T01:22:29.775Z,99107.38
2022-12-23T01:24:03.807Z,99112.56
2022-12-23T01:25:37.017Z,99111.69
2022-12-23T01:27:10.164Z,99103.88
2022-12-23T01:28:43.305Z,99101.28
2022-12-23T01:30:15.637Z,99096.94
2022-12-23T01:31:48.875Z,99099.53
2022-12-23T01:33:22.265Z,99096.09
2022-12-23T01:34:55.365Z,99095.19
2022-12-23T01:36:28.446Z,99092.59
2022-12-23T01:38:01.569Z,99078.75
2022-12-23T01:39:36.075Z,99089.16
2022-12-23T01:41:09.288Z,99085.69
2022-12-23T01:42:44.301Z,99087.41
2022-12-23T01:45:06.284Z,99096.06
2022-12-23T01:46:39.404Z,99096.06
2022-12-23T01:48:15.581Z,99087.38
2022-12-23T01:49:49.115Z,99094.34
2022-12-23T01:51:27.151Z,99094.34
2022-12-23T01:53:07.750Z,99090.03
2022-12-23T01:54:44.536Z,99089.16
2022-12-23T01:56:20.958Z,99088.28
2022-12-23T01:57:57.914Z,99094.34
2022-12-23T01:59:51.255Z,99092.59
2022-12-23T02:01:42.445Z,99069.25
2022-12-23T02:03:32.920Z,99083.97
2022-12-23T02:05:06.588Z,99078.78
2022-12-23T02:06:59.618Z,99073.59
2022-12-23T02:08:50.322Z,99084.00
2022-12-23T02:10:28.925Z,99066.66
2022-12-23T02:12:33.995Z,99070.13
2022-12-23T02:14:38.392Z,99066.69
2022-12-23T02:16:19.706Z,99080.53
2022-12-23T02:18:06.936Z,99082.28
2022-12-23T02:20:04.973Z,99072.75
2022-12-23T02:22:07.472Z,99070.13
2022-12-23T02:24:21.233Z,99058.00
2022-12-23T02:26:16.600Z,99066.66
2022-12-23T02:28:01.064Z,99065.78
2022-12-23T02:30:07.044Z,99063.19
2022-12-23T02:31:50.623Z,99059.75
2022-12-23T02:33:43.542Z,99056.28
2022-12-23T02:35:26.527Z,99051.94
2022-12-23T02:37:06.793Z,99058.00
2022-12-23T02:38:49.417Z,99066.66
2022-12-23T02:40:37.779Z,99064.06
2022-12-23T02:42:16.660Z,99061.47
2022-12-23T02:43:55.828Z,99058.00
2022-12-23T02:45:35.429Z,99071.88
2022-12-23T02:47:12.522Z,99068.38
2022-12-23T02:48:50.806Z,99059.75
2022-12-23T02:50:29.582Z,99056.28
2022-12-23T02:52:06.798Z,99060.59
2022-12-23T02:53:43.551Z,99059.72
2022-12-23T02:55:22.763Z,99060.59
2022-12-23T02:56:58.402Z,99064.94
2022-12-23T02:58:35.327Z,99051.06
2022-12-23T03:00:09.872Z,99056.25
2022-12-23T03:01:46.205Z,99047.59
2022-12-23T03:03:22.260Z,99047.63
2022-12-23T03:04:55.536Z,99045.88
2022-12-23T03:06:31.389Z,99053.69
2022-12-23T03:08:07.658Z,99051.94
2022-12-23T03:09:51.750Z,99040.69
2022-12-23T03:11:40.238Z,99038.06
2022-12-23T03:13:28.027Z,99049.34
2022-12-23T03:15:18.807Z,99049.34
2022-12-23T03:16:59.673Z,99044.16
2022-12-23T03:18:44.557Z,99051.06
2022-12-23T03:20:26.540Z,99042.41
2022-12-23T03:22:11.208Z,99040.69
2022-12-23T03:23:55.789Z,99038.97
2022-12-23T03:25:35.316Z,99044.16
2022-12-23T03:27:17.218Z,99049.34
2022-12-23T03:28:55.963Z,99050.22
2022-12-23T03:30:31.503Z,99032.88
2022-12-23T03:32:05.355Z,99049.31
2022-12-23T03:33:43.884Z,99056.25
2022-12-23T03:35:20.405Z,99056.25
2022-12-23T03:36:57.624Z,99051.03
2022-12-23T03:38:36.039Z,99052.78
2022-12-23T03:40:15.390Z,99049.31
2022-12-23T03:41:53.935Z,99045.81
2022-12-23T03:43:31.906Z,99049.28
2022-12-23T03:45:37.483Z,99043.25
2022-12-23T03:47:10.455Z,99051.03
2022-12-23T03:48:49.619Z,99057.97
2022-12-23T03:50:25.347Z,99044.13
2022-12-23T03:52:02.979Z,99044.97
2022-12-23T03:53:40.396Z,99047.59
2022-12-23T03:55:18.856Z,99045.88
2022-12-23T03:56:56.526Z,99045.88
2022-12-23T03:58:37.233Z,99050.19
2022-12-23T04:00:12.998Z,99055.38
2022-12-23T04:01:55.985Z,99052.81
2022-12-23T04:03:37.505Z,99059.72
2022-12-23T04:05:21.179Z,99058.00
2022-12-23T04:07:00.893Z,99061.44
2022-12-23T04:08:37.511Z,99059.75
2022-12-23T04:10:11.086Z,99056.25
2022-12-23T04:11:44.739Z,99053.66
2022-12-23T04:13:17.576Z,99049.31
2022-12-23T04:14:51.951Z,99048.47
2022-12-23T04:16:25.219Z,99049.34
2022-12-23T04:17:58.529Z,99047.59
2022-12-23T04:19:35.408Z,99051.06
2022-12-23T04:21:10.224Z,99044.13
2022-12-23T04:22:44.619Z,99044.13
2022-12-23T04:24:19.072Z,99033.72
2022-12-23T04:25:53.942Z,99038.91
2022-12-23T04:27:27.853Z,99033.75
2022-12-23T04:29:00.992Z,99032.00
2022-12-23T04:30:35.083Z,99040.69
2022-12-23T04:32:07.330Z,99030.28
2022-12-23T04:33:41.132Z,99035.50
2022-12-23T04:35:14.773Z,99037.22
2022-12-23T04:36:49.878Z,99049.34
2022-12-23T04:38:26.823Z,99049.34
2022-12-23T04:40:01.316Z,99049.34
2022-12-23T04:41:34.707Z,99049.34
2022-12-23T04:43:08.608Z,99051.06
2022-12-23T04:44:41.946Z,99051.94
2022-12-23T04:46:16.799Z,99058.88
2022-12-23T04:48:13.971Z,99056.28
2022-12-23T04:49:46.144Z,99058.00
2022-12-23T04:51:19.287Z,99045.00
2022-12-23T04:52:53.816Z,99051.94
2022-12-23T04:54:26.938Z,99060.59
2022-12-23T04:56:00.098Z,99059.75
2022-12-23T04:57:33.241Z,99058.88
2022-12-23T04:59:06.451Z,99069.28
2022-12-23T05:00:40.202Z,99047.59
2022-12-23T05:02:13.686Z,99070.97
2022-12-23T05:03:46.998Z,99062.34
2022-12-23T05:05:20.171Z,99063.19
2022-12-23T05:06:53.396Z,99058.00
2022-12-23T05:08:28.119Z,99061.47
2022-12-23T05:10:02.435Z,99061.47
2022-12-23T05:11:41.824Z,99056.28
2022-12-23T05:13:14.473Z,99065.81
2022-12-23T05:14:47.621Z,99066.66
2022-12-23T05:16:20.936Z,99068.41
2022-12-23T05:17:54.138Z,99066.66
2022-12-23T05:19:27.281Z,99069.25
2022-12-23T05:21:00.500Z,99070.13
2022-12-23T05:22:33.721Z,99077.06
2022-12-23T05:24:08.563Z,99084.00
2022-12-23T05:25:40.936Z,99081.38
2022-12-23T05:27:14.140Z,99075.34
2022-12-23T05:28:47.542Z,99071.88
2022-12-23T05:30:20.889Z,99070.16
2022-12-23T05:31:54.195Z,99058.00
2022-12-23T05:33:26.796Z,99067.53
2022-12-23T05:34:59.988Z,99089.19
2022-12-23T05:36:33.197Z,99090.06
2022-12-23T05:38:06.402Z,99092.66
2022-12-23T05:39:40.928Z,99097.84
2022-12-23T05:41:14.215Z,99096.13
2022-12-23T05:42:46.706Z,99089.19
2022-12-23T05:44:19.773Z,99091.78
2022-12-23T05:45:53.307Z,99077.06
2022-12-23T05:47:25.542Z,99085.75
2022-12-23T05:48:58.796Z,99077.06
2022-12-23T05:50:32.028Z,99085.75
2022-12-23T05:52:08.117Z,99090.91
2022-12-23T05:53:41.280Z,99087.47
2022-12-23T05:55:15.865Z,99081.41
2022-12-23T05:56:48.971Z,99079.66
2022-12-23T05:58:22.113Z,99089.19
2022-12-23T05:59:55.272Z,99085.72
2022-12-23T06:01:28.612Z,99087.47
2022-12-23T06:03:02.081Z,99092.66
2022-12-23T06:04:35.532Z,99085.75
2022-12-23T06:06:08.721Z,99090.91
2022-12-23T06:07:43.014Z,99092.66
2022-12-23T06:09:16.246Z,99096.13
2022-12-23T06:10:50.797Z,99096.97
2022-12-23T06:12:23.925Z,99096.13
2022-12-23T06:13:57.048Z,99092.66
2022-12-23T06:15:29.177Z,99094.41
2022-12-23T06:17:02.530Z,99094.38
2022-12-23T06:18:35.874Z,99092.66
2022-12-23T06:20:16.287Z,99097.84
2022-12-23T06:21:53.410Z,99092.66
2022-12-23T06:23:26.559Z,99090.91
2022-12-23T06:24:59.705Z,99091.75
2022-12-23T06:26:36.074Z,99092.63
2022-12-23T06:28:09.167Z,99090.00
2022-12-23T06:29:41.598Z,99090.88
2022-12-23T06:31:14.803Z,99093.47
2022-12-23T06:32:48.050Z,99087.38
2022-12-23T06:34:21.297Z,99090.84
2022-12-23T06:35:54.566Z,99092.56
2022-12-23T06:37:27.730Z,99092.56
2022-12-23T06:39:00.956Z,99088.22
2022-12-23T06:40:34.207Z,99096.91
2022-12-23T06:42:08.708Z,99102.13
2022-12-23T06:43:41.885Z,99091.72
2022-12-23T06:45:14.983Z,99089.06
2022-12-23T06:46:48.166Z,99094.22
2022-12-23T06:48:21.436Z,99092.44
2022-12-23T06:49:54.959Z,99100.22
2022-12-23T06:51:28.171Z,99094.13
2022-12-23T06:53:01.375Z,99083.63
2022-12-23T06:54:34.629Z,99092.25
2022-12-23T06:56:08.215Z,99096.56
2022-12-23T06:57:42.930Z,99092.16
2022-12-23T06:59:16.160Z,99096.38
2022-12-23T07:00:49.360Z,99098.06
2022-12-23T07:02:22.641Z,99092.78
2022-12-23T07:03:55.834Z,99088.41
2022-12-23T07:05:36.494Z,99100.47
2022-12-23T07:07:09.965Z,99103.00
2022-12-23T07:08:43.363Z,99105.53
2022-12-23T07:10:16.686Z,99089.88
2022-12-23T07:11:49.889Z,99089.06
2022-12-23T07:13:24.390Z,99095.09
2022-12-23T07:14:57.547Z,99096.78
2022-12-23T07:16:30.704Z,99098.53
2022-12-23T07:18:04.019Z,99104.59
2022-12-23T07:19:37.230Z,99102.00
2022-12-23T07:21:19.984Z,99072.53
2022-12-23T07:22:59.798Z,99098.47
2022-12-23T07:24:32.961Z,99095.88
2022-12-23T07:26:06.431Z,99097.63
2022-12-23T07:27:38.531Z,99099.34
2022-12-23T07:29:13.082Z,99095.81
2022-12-23T07:30:46.177Z,99095.72
2022-12-23T07:32:19.375Z,99113.06
2022-12-23T07:33:52.620Z,99098.25
2022-12-23T07:35:25.804Z,99102.53
2022-12-23T07:36:58.953Z,99104.31
2022-12-23T07:38:32.119Z,99106.09
2022-12-23T07:40:08.818Z,99120.84
2022-12-23T07:41:42.294Z,99114.81
2022-12-23T07:43:15.712Z,99113.06
2022-12-23T07:44:50.266Z,99118.25
2022-12-23T07:46:23.526Z,99116.50
2022-12-23T07:47:57.247Z,99112.91
2022-12-23T07:49:30.386Z,99106.72
2022-12-23T07:51:04.295Z,99105.00
2022-12-23T07:52:37.458Z,99112.72
2022-12-23T07:54:13.937Z,99110.84
2022-12-23T07:55:51.522Z,99108.88
2022-12-23T07:57:29.378Z,99117.03
2022-12-23T07:59:02.574Z,99117.25
2022-12-23T08:00:37.143Z,99116.72
2022-12-23T08:02:11.850Z,99119.91
2022-12-23T08:03:45.427Z,99108.50
2022-12-23T08:05:18.787Z,99116.22
2022-12-23T08:06:52.077Z,99111.03
2022-12-23T08:08:25.187Z,99106.59
2022-12-23T08:09:58.257Z,99109.06
2022-12-23T08:11:31.387Z,99110.66
2022-12-23T08:13:04.486Z,99117.47
2022-12-23T08:14:37.636Z,99116.38
2022-12-23T08:16:12.654Z,99113.63
2022-12-23T08:17:45.839Z,99112.59
2022-12-23T08:19:18.996Z,99116.97
2022-12-23T08:20:56.293Z,99101.16
2022-12-23T08:22:29.417Z,99105.53
2022-12-23T08:24:02.584Z,99107.25
2022-12-23T08:25:35.704Z,99102.75
2022-12-23T08:27:08.946Z,99099.00
2022-12-23T08:28:43.901Z,99109.13
2022-12-23T08:30:17.254Z,99108.78
2022-12-23T08:31:51.775Z,99107.59
2022-12-23T08:33:24.914Z,99113.22
2022-12-23T08:34:59.243Z,99105.28
2022-12-23T08:36:34.050Z,99109.81
2022-12-23T08:38:07.137Z,99108.31
2022-12-23T08:39:40.341Z,99107.69
2022-12-23T08:41:15.958Z,99107.78
2022-12-23T08:42:49.226Z,99106.91
2022-12-23T08:44:23.309Z,99101.69
2022-12-23T08:45:56.496Z,99104.19
2022-12-23T08:47:31.177Z,99103.47
2022-12-23T08:49:04.989Z,99099.19
2022-12-23T08:50:39.873Z,99095.75
2022-12-23T08:52:12.995Z,99095.66
2022-12-23T08:53:46.501Z,99083.53
2022-12-23T08:55:19.669Z,99095.78
2022-12-23T08:56:52.840Z,99090.56
2022-12-23T08:58:25.995Z,99094.84
2022-12-23T08:59:59.099Z,99086.91
2022-12-23T09:01:34.408Z,99082.69
2022-12-23T09:03:09.580Z,99086.25
2022-12-23T09:04:42.781Z,99087.06
2022-12-23T09:06:20.738Z,99077.44
2022-12-23T09:07:57.988Z,99080.88
2022-12-23T09:09:31.156Z,99056.56
2022-12-23T09:11:04.749Z,99068.72
2022-12-23T09:12:37.876Z,99075.63
2022-12-23T09:14:12.234Z,99072.97
2022-12-23T09:15:46.350Z,99065.03
2022-12-23T09:17:20.062Z,99065.69
2022-12-23T09:18:54.702Z,99068.16
2022-12-23T09:20:27.796Z,99061.16
2022-12-23T09:22:00.940Z,99068.97
2022-12-23T09:23:34.693Z,99058.41
2022-12-23T09:25:08.636Z,99073.25
2022-12-23T09:26:41.894Z,99065.28
2022-12-23T09:28:15.168Z,99068.47
2022-12-23T09:29:48.317Z,99063.88
2022-12-23T09:31:23.038Z,99059.28
2022-12-23T09:32:56.420Z,99054.88
2022-12-23T09:34:31.108Z,99040.91
2022-12-23T09:36:05.526Z,99050.41
2022-12-23T09:37:38.764Z,99057.56
2022-12-23T09:39:12.618Z,99048.72
2022-12-23T09:40:45.806Z,99052.19
2022-12-23T09:42:31.784Z,99055.13
2022-12-23T09:44:20.569Z,99048.97
2022-12-23T09:46:04.907Z,99050.28
2022-12-23T09:47:39.468Z,99058.03
2022-12-23T09:49:15.267Z,99047.41
2022-12-23T09:50:51.046Z,99051.56
2022-12-23T09:52:29.625Z,99048.97
2022-12-23T09:54:16.572Z,99049.84
2022-12-23T09:55:55.509Z,99048.28
2022-12-23T09:57:36.545Z,99047.72
2022-12-23T09:59:23.589Z,99042.72
2022-12-23T10:01:14.870Z,99033.59
2022-12-23T10:03:06.765Z,99032.47
2022-12-23T10:04:49.742Z,99041.78
2022-12-23T10:06:28.898Z,99036.34
2022-12-23T10:08:07.994Z,99030.72
2022-12-23T10:09:44.451Z,99038.09
2022-12-23T10:11:23.369Z,99040.34
2022-12-23T10:12:59.522Z,99034.69
2022-12-23T10:14:35.197Z,99034.44
2022-12-23T10:16:13.294Z,99027.22
2022-12-23T10:17:46.908Z,99021.50
2022-12-23T10:19:24.098Z,99021.31
2022-12-23T10:21:04.576Z,99020.50
2022-12-23T10:22:44.296Z,99010.88
2022-12-23T10:24:22.892Z,99026.13
2022-12-23T10:25:56.370Z,99016.25
2022-12-23T10:27:33.458Z,99011.44
2022-12-23T10:29:19.138Z,99009.44
2022-12-23T10:33:01.636Z,99011.03
2022-12-23T10:34:47.128Z,99012.47
2022-12-23T10:36:30.918Z,99008.63
2022-12-23T10:38:17.232Z,99009.94
2022-12-23T10:39:58.021Z,99003.47
2022-12-23T10:41:38.988Z,99001.53
2022-12-23T10:43:22.027Z,98998.84
2022-12-23T10:45:29.279Z,98991.97
2022-12-23T10:47:14.348Z,99005.66
2022-12-23T10:48:57.808Z,99002.91
2022-12-23T10:50:48.524Z,99013.38
2022-12-23T10:52:24.698Z,98995.59
2022-12-23T10:54:05.146Z,99001.44
2022-12-23T10:55:40.046Z,99000.03
2022-12-23T10:57:15.556Z,98994.94
2022-12-23T10:58:55.580Z,99000.22
2022-12-23T11:00:29.210Z,98994.63
2022-12-23T11:02:14.289Z,99002.25
2022-12-23T11:03:55.382Z,98998.38
2022-12-23T11:05:31.746Z,98997.28
2022-12-23T11:07:41.944Z,98997.09
2022-12-23T11:09:02.416Z,98994.91
2022-12-23T11:10:35.656Z,98993.88
2022-12-23T11:12:11.784Z,98990.41
2022-12-23T11:13:47.070Z,98990.97
2022-12-23T11:15:31.309Z,98980.78
2022-12-23T11:17:05.897Z,98985.00
2022-12-23T11:18:42.104Z,98986.72
2022-12-23T11:20:18.040Z,98980.66
2022-12-23T11:21:56.445Z,98982.97
2022-12-23T11:23:31.324Z,98986.38
2022-12-23T11:25:27.567Z,98980.22
2022-12-23T11:27:03.249Z,98979.94
2022-12-23T11:28:39.704Z,98975.38
2022-12-23T11:30:19.006Z,98976.72
2022-12-23T11:31:53.074Z,98981.56
2022-12-23T11:33:29.266Z,98974.94
2022-12-23T11:35:02.681Z,98979.00
2022-12-23T11:36:36.416Z,98970.03
2022-12-23T11:38:15.538Z,98966.25
2022-12-23T11:39:48.663Z,98967.84
2022-12-23T11:41:26.281Z,98965.00
2022-12-23T11:43:02.426Z,98967.47
2022-12-23T11:44:40.566Z,98965.63
2022-12-23T11:46:17.468Z,98968.94
2022-12-23T11:47:50.875Z,98969.59
2022-12-23T11:49:26.635Z,98965.09
2022-12-23T11:51:01.253Z,98958.09
2022-12-23T11:52:35.079Z,98965.91
2022-12-23T11:54:16.040Z,98961.16
2022-12-23T11:56:00.267Z,98957.47
2022-12-23T11:57:40.737Z,98960.97
2022-12-23T11:59:29.149Z,98961.84
2022-12-23T12:01:09.616Z,98957.41
2022-12-23T12:02:46.088Z,98953.03
2022-12-23T12:04:23.325Z,98964.50
2022-12-23T12:05:59.944Z,98952.16
2022-12-23T12:07:34.188Z,98949.53
2022-12-23T12:09:07.904Z,98950.47
2022-12-23T12:10:45.156Z,98947.00
2022-12-23T12:12:21.123Z,98946.34
2022-12-23T12:14:00.288Z,98954.22
2022-12-23T12:15:44.261Z,98936.94
2022-12-23T12:17:21.297Z,98943.91
2022-12-23T12:18:58.790Z,98957.09
2022-12-23T12:20:37.542Z,98957.25
2022-12-23T12:22:16.872Z,98954.53
2022-12-23T12:24:14.702Z,98962.56
2022-12-23T12:25:50.033Z,98961.78
2022-12-23T12:27:32.082Z,98964.50
2022-12-23T12:29:17.317Z,98955.09
2022-12-23T12:30:55.766Z,98953.44
2022-12-23T12:32:43.302Z,98957.16
2022-12-23T12:34:28.770Z,98958.97
2022-12-23T12:36:11.025Z,98964.53
2022-12-23T12:37:49.404Z,98963.00
2022-12-23T12:39:29.134Z,98969.94
2022-12-23T12:41:09.547Z,98958.56
2022-12-23T12:42:44.347Z,98957.88
2022-12-23T12:44:30.066Z,98958.00
2022-12-23T12:46:23.155Z,98971.25
2022-12-23T12:48:18.484Z,98967.06
2022-12-23T12:49:58.224Z,98972.34
2022-12-23T12:51:38.298Z,98972.34
2022-12-23T12:53:17.328Z,98961.00
2022-12-23T12:54:53.761Z,98961.97
2022-12-23T12:56:32.644Z,98958.47
2022-12-23T12:58:05.804Z,98956.75
2022-12-23T12:59:41.674Z,98965.72
2022-12-23T13:01:30.571Z,98963.13
2022-12-23T13:03:18.923Z,98950.16
2022-12-23T13:05:10.386Z,98959.50
2022-12-23T13:06:53.065Z,98968.47
2022-12-23T13:08:46.909Z,98958.84
2022-12-23T13:10:35.406Z,98971.88
2022-12-23T13:12:17.744Z,98971.00
2022-12-23T13:13:57.250Z,98957.09
2022-12-23T13:15:37.654Z,98969.25
2022-12-23T13:17:19.239Z,98960.53
2022-12-23T13:18:59.403Z,98962.38
2022-12-23T13:20:37.431Z,98966.06
2022-12-23T13:22:14.394Z,98966.09
2022-12-23T13:23:53.437Z,98968.03
2022-12-23T13:25:31.356Z,98968.91
2022-12-23T13:27:12.444Z,98956.59
2022-12-23T13:28:53.038Z,98966.16
2022-12-23T13:30:31.788Z,98963.53
2022-12-23T13:32:20.801Z,98967.91
2022-12-23T13:34:01.788Z,98964.47
2022-12-23T13:36:04.961Z,98963.63
2022-12-23T13:37:47.528Z,98954.81
2022-12-23T13:39:33.214Z,98965.31
2022-12-23T13:41:15.813Z,98959.19
2022-12-23T13:42:54.744Z,98958.41
2022-12-23T13:44:28.211Z,98957.56
2022-12-23T13:46:10.045Z,98963.66
2022-12-23T13:47:51.049Z,98964.72
2022-12-23T13:49:36.228Z,98963.22
2022-12-23T13:51:16.913Z,98971.41
2022-12-23T13:53:07.814Z,98966.66
2022-12-23T13:54:52.736Z,98964.94
2022-12-23T13:56:30.986Z,98964.44
2022-12-23T13:58:11.859Z,98968.00
2022-12-23T14:00:04.667Z,98976.06
2022-12-23T14:01:48.357Z,98976.13
2022-12-23T14:03:27.147Z,98978.81
2022-12-23T14:05:01.458Z,98973.53
2022-12-23T14:06:45.968Z,98977.94
2022-12-23T14:08:28.950Z,98978.72
2022-12-23T14:10:12.682Z,98975.03
2022-12-23T14:11:46.223Z,98980.22
2022-12-23T14:13:20.404Z,98978.47
2022-12-23T14:15:19.309Z,98992.59
2022-12-23T14:17:06.630Z,98987.41
2022-12-23T14:19:00.175Z,98977.09
2022-12-23T14:20:47.301Z,98979.03
2022-12-23T14:22:43.094Z,98978.03
2022-12-23T14:24:45.516Z,98984.41
2022-12-23T14:26:34.368Z,98981.94
2022-12-23T14:28:21.361Z,98983.78
2022-12-23T14:30:06.244Z,98973.38
2022-12-23T14:31:42.670Z,98976.16
2022-12-23T14:33:22.610Z,98979.66
2022-12-23T14:35:21.174Z,98980.66
2022-12-23T14:37:30.585Z,98975.47
2022-12-23T14:39:34.667Z,98983.66
2022-12-23T14:41:23.902Z,98975.16
2022-12-23T14:43:26.116Z,98977.19
2022-12-23T14:45:34.071Z,98982.44
2022-12-23T14:47:32.069Z,98979.03
2022-12-23T14:51:25.672Z,98987.84
2022-12-23T14:53:02.438Z,98983.44
2022-12-23T14:54:39.893Z,98991.38
2022-12-23T14:56:23.739Z,98989.66
2022-12-23T14:58:07.698Z,98991.59
2022-12-23T14:59:49.383Z,98982.13
2022-12-23T15:01:30.999Z,98991.59
2022-12-23T15:03:04.315Z,98994.34
2022-12-23T15:04:45.277Z,98995.13
2022-12-23T15:06:28.504Z,98988.25
2022-12-23T15:08:01.947Z,98993.41
2022-12-23T15:09:39.954Z,98992.63
2022-12-23T15:11:22.747Z,98994.34
2022-12-23T15:12:58.107Z,98995.25
2022-12-23T15:14:35.703Z,98988.38
2022-12-23T15:16:16.563Z,98997.16
2022-12-23T15:17:50.868Z,98995.47
2022-12-23T15:19:27.193Z,98992.13
2022-12-23T15:21:02.093Z,98995.53
2022-12-23T15:22:37.527Z,98994.75
2022-12-23T15:24:16.157Z,98991.34
2022-12-23T15:25:51.403Z,98994.13
2022-12-23T15:27:28.439Z,98997.66
2022-12-23T15:29:02.550Z,99005.72
2022-12-23T15:30:47.631Z,99010.16
2022-12-23T15:32:24.637Z,99008.44
2022-12-23T15:34:03.942Z,99012.88
2022-12-23T15:35:42.987Z,99012.03
2022-12-23T15:37:21.085Z,99007.75
2022-12-23T15:38:55.645Z,99013.88
2022-12-23T15:40:32.143Z,99013.06
2022-12-23T15:42:05.447Z,99021.97
2022-12-23T15:43:43.019Z,99015.97
2022-12-23T15:45:32.120Z,99010.72
2022-12-23T15:47:43.622Z,99017.75
2022-12-23T15:49:17.348Z,99023.16
2022-12-23T15:50:52.732Z,99026.75
2022-12-23T15:52:26.905Z,99018.16
2022-12-23T15:54:05.687Z,99029.50
2022-12-23T15:55:43.612Z,99030.41
2022-12-23T15:57:21.922Z,99026.09
2022-12-23T15:58:57.141Z,99026.19
2022-12-23T16:00:37.733Z,99027.22
2022-12-23T16:02:58.356Z,99024.88
2022-12-23T16:04:21.595Z,99032.88
2022-12-23T16:05:55.124Z,99034.56
2022-12-23T16:07:35.115Z,99036.41
2022-12-23T16:09:32.919Z,99041.66
2022-12-23T16:11:13.476Z,99030.34
2022-12-23T16:12:46.692Z,99035.16
2022-12-23T16:14:38.114Z,99041.38
2022-12-23T16:16:37.508Z,99036.31
2022-12-23T16:18:15.291Z,99035.75
2022-12-23T16:19:50.544Z,99041.09
2022-12-23T16:21:29.659Z,99034.19
2022-12-23T16:23:05.516Z,99036.97
2022-12-23T16:24:44.304Z,99034.53
2022-12-23T16:26:18.130Z,99038.22
2022-12-23T16:27:57.621Z,99042.69
2022-12-23T16:29:33.739Z,99036.75
2022-12-23T16:31:09.249Z,99042.16
2022-12-23T16:32:55.151Z,99035.34
2022-12-23T16:34:31.833Z,99040.69
2022-12-23T16:36:19.742Z,99051.28
2022-12-23T16:37:53.866Z,99045.31
2022-12-23T16:39:27.703Z,99047.97
2022-12-23T16:41:03.272Z,99041.97
2022-12-23T16:42:36.462Z,99046.47
2022-12-23T16:44:10.705Z,99051.88
2022-12-23T16:45:45.953Z,99051.19
2022-12-23T16:47:19.765Z,99052.19
2022-12-23T16:48:56.048Z,99050.59
2022-12-23T16:50:30.046Z,99061.28
2022-12-23T16:52:05.650Z,99046.72
2022-12-23T16:53:38.922Z,99058.03
2022-12-23T16:55:17.300Z,99052.91
2022-12-23T16:56:52.073Z,99063.53
2022-12-23T16:58:25.367Z,99055.78
2022-12-23T16:59:58.958Z,99060.16
2022-12-23T17:01:34.661Z,99069.06
2022-12-23T17:03:09.006Z,99060.38
2022-12-23T17:04:42.323Z,99060.44
2022-12-23T17:06:15.762Z,99071.00
2022-12-23T17:07:49.531Z,99068.44
2022-12-23T17:09:23.310Z,99065.94
2022-12-23T17:10:58.279Z,99069.59
2022-12-23T17:12:33.970Z,99062.66
2022-12-23T17:14:15.265Z,99068.03
2022-12-23T17:15:49.019Z,99069.91
2022-12-23T17:17:25.791Z,99068.19
2022-12-23T17:18:59.120Z,99055.25
2022-12-23T17:20:32.798Z,99064.88
2022-12-23T17:22:06.266Z,99061.44
2022-12-23T17:23:40.700Z,99064.94
2022-12-23T17:25:21.220Z,99059.78
2022-12-23T17:26:56.919Z,99059.88
2022-12-23T17:28:34.112Z,99056.50
2022-12-23T17:30:08.507Z,99056.63
2022-12-23T17:31:43.316Z,99051.56
2022-12-23T17:33:20.297Z,99058.56
2022-12-23T17:34:54.088Z,99056.91
2022-12-23T17:36:27.553Z,99061.34
2022-12-23T17:38:02.353Z,99057.91
2022-12-23T17:39:35.759Z,99064.09
2022-12-23T17:41:18.983Z,99055.47
2022-12-23T17:42:52.109Z,99052.94
2022-12-23T17:44:27.591Z,99055.63
2022-12-23T17:46:00.773Z,99054.91
2022-12-23T17:47:34.188Z,99062.78
2022-12-23T17:49:07.646Z,99060.22
2022-12-23T17:50:42.072Z,99069.00
2022-12-23T17:52:16.948Z,99061.28
2022-12-23T17:53:57.393Z,99066.41
2022-12-23T17:55:31.955Z,99063.84
2022-12-23T17:57:17.954Z,99058.66
2022-12-23T17:58:52.270Z,99064.84
2022-12-23T18:00:33.904Z,99059.63
2022-12-23T18:02:22.179Z,99062.19
2022-12-23T18:03:56.344Z,99063.09
2022-12-23T18:05:31.846Z,99070.13
2022-12-23T18:07:05.034Z,99063.22
2022-12-23T18:08:38.185Z,99067.59
2022-12-23T18:10:14.735Z,99061.56
2022-12-23T18:11:50.343Z,99068.53
2022-12-23T18:13:23.705Z,99079.06
2022-12-23T18:14:57.050Z,99077.34
2022-12-23T18:16:31.819Z,99078.25
2022-12-23T18:18:13.275Z,99074.75
2022-12-23T18:19:46.567Z,99077.41
2022-12-23T18:21:24.986Z,99080.06
2022-12-23T18:22:59.372Z,99084.44
2022-12-23T18:24:32.652Z,99089.72
2022-12-23T18:26:05.843Z,99086.22
2022-12-23T18:27:38.994Z,99082.78
2022-12-23T18:29:12.218Z,99077.53
2022-12-23T18:30:45.543Z,99084.44
2022-12-23T18:32:25.387Z,99090.50
2022-12-23T18:33:59.698Z,99082.66
2022-12-23T18:35:35.741Z,99082.66
2022-12-23T18:37:10.336Z,99087.97
2022-12-23T18:38:43.495Z,99083.63
2022-12-23T18:40:16.651Z,99077.63
2022-12-23T18:41:50.072Z,99082.88
2022-12-23T18:43:24.804Z,99076.09
2022-12-23T18:44:58.087Z,99087.44
2022-12-23T18:46:31.317Z,99086.59
2022-12-23T18:48:08.185Z,99092.69
2022-12-23T18:49:41.768Z,99091.94
2022-12-23T18:51:16.258Z,99099.72
2022-12-23T18:52:49.787Z,99092.75
2022-12-23T18:54:22.942Z,99089.28
2022-12-23T18:55:56.422Z,99090.22
2022-12-23T18:57:29.861Z,99089.41
2022-12-23T18:59:02.977Z,99097.34
2022-12-23T19:00:36.110Z,99087.69
2022-12-23T19:02:15.266Z,99098.09
2022-12-23T19:03:49.939Z,99082.41
2022-12-23T19:05:26.134Z,99087.66
2022-12-23T19:06:59.316Z,99083.28
2022-12-23T19:08:32.497Z,99079.81
2022-12-23T19:10:06.768Z,99088.59
2022-12-23T19:11:39.990Z,99082.56
2022-12-23T19:13:13.212Z,99080.03
2022-12-23T19:14:46.474Z,99087.06
2022-12-23T19:16:22.258Z,99081.88